Terminal Aerodrome Forecast
Issued by NWS Missoula, MT

Home | Current Version | Previous Version | Text Only | Print | Product List | Glossary On
Versions: 1 2 3 4 5 6 7 8 9 10 11 12
000
FTUS45 KMSO 051120
TAFMSO
TAF
KMSO 051120Z 0512/0612 28005KT P6SM BKN120
     FM052200 35011KT P6SM VCTS SCT070CB BKN120
     FM060300 35017G25KT P6SM VCSH BKN050 OVC120
     FM060800 06011KT P6SM OVC050=

USA.gov is the U.S. government's official web portal to all federal, state and local government web resources and services.